Time;durP1;ratioP1;P1;durP2;ratioP2;P2;SDS_P1;SDS_P2;PMS_P1;PMS_P2;Temp;Humidity;BMP_temperature;BMP_pressure;BME280_temperature;BME280_humidity;BME280_pressure;Samples;Min_cycle;Max_cycle;Signal;HPM_P1;HPM_P2
2022/03/05 00:01:10;;;;;;;1999.90;999.90;;;4.10;99.90;;;;;;5034890;28;20409;-77
2022/03/05 00:03:36;;;;;;;1999.90;999.90;;;4.10;99.90;;;;;;5034746;28;20191;-77
2022/03/05 00:06:02;;;;;;;1999.90;999.90;;;4.00;99.90;;;;;;5034412;28;20251;-77
2022/03/05 00:08:28;;;;;;;1999.90;999.90;;;4.00;99.90;;;;;;5034551;28;20207;-77
2022/03/05 00:10:53;;;;;;;1999.90;999.90;;;4.00;99.90;;;;;;5034532;28;20172;-77
2022/03/05 00:13:19;;;;;;;1999.90;999.90;;;4.10;99.90;;;;;;5034364;28;20465;-77
2022/03/05 00:15:46;;;;;;;1999.90;999.90;;;4.00;99.90;;;;;;5034183;28;20222;-77
2022/03/05 00:18:11;;;;;;;1999.90;999.90;;;4.10;99.90;;;;;;5034334;28;20214;-77
2022/03/05 00:20:37;;;;;;;1999.90;999.90;;;4.10;99.90;;;;;;5034472;28;20815;-77
2022/03/05 00:23:03;;;;;;;1999.90;999.90;;;4.10;99.90;;;;;;5034438;28;20637;-77
2022/03/05 00:25:29;;;;;;;1999.90;999.90;;;4.00;99.90;;;;;;5034110;28;20177;-77
2022/03/05 00:27:54;;;;;;;1999.90;999.90;;;4.00;99.90;;;;;;5034190;28;20192;-77
2022/03/05 00:30:27;;;;;;;1999.90;999.90;;;3.90;99.90;;;;;;5044176;28;20407;-77
2022/03/05 00:32:53;;;;;;;1999.90;999.90;;;3.90;99.90;;;;;;5027256;28;20180;-77
2022/03/05 00:35:20;;;;;;;1999.90;999.90;;;3.90;99.90;;;;;;5044910;28;20486;-77
2022/03/05 00:37:46;;;;;;;1999.90;999.90;;;3.90;99.90;;;;;;5027736;28;20242;-77
2022/03/05 00:40:12;;;;;;;1999.90;999.90;;;3.80;99.90;;;;;;5043171;28;20423;-77
2022/03/05 00:42:38;;;;;;;1999.90;999.90;;;3.90;99.90;;;;;;5043594;28;20191;-77
2022/03/05 00:45:07;;;;;;;1999.90;999.90;;;3.70;99.90;;;;;;5043450;28;20168;-77
2022/03/05 00:47:36;;;;;;;1999.90;999.90;;;3.60;99.90;;;;;;5027021;28;20454;-77
2022/03/05 00:50:09;;;;;;;1999.90;999.90;;;3.60;99.90;;;;;;5027369;28;20176;-77
2022/03/05 00:52:38;;;;;;;1999.90;999.90;;;3.40;99.90;;;;;;5044596;28;20172;-77
2022/03/05 00:55:05;;;;;;;1999.90;999.90;;;3.30;99.90;;;;;;5027227;28;20661;-77
2022/03/05 00:57:32;;;;;;;1999.90;999.90;;;3.40;99.90;;;;;;5042912;28;20239;-77
2022/03/05 01:00:00;;;;;;;1999.90;999.90;;;3.30;99.90;;;;;;5011639;28;20207;-77
2022/03/05 01:02:26;;;;;;;1999.90;999.90;;;3.20;99.90;;;;;;5027326;28;20180;-77
2022/03/05 01:04:58;;;;;;;1999.90;999.90;;;3.20;99.90;;;;;;5010122;28;20419;-77
2022/03/05 01:07:26;;;;;;;1999.90;999.90;;;3.10;99.90;;;;;;5026766;28;20443;-77
2022/03/05 01:09:54;;;;;;;1999.90;999.90;;;3.10;99.90;;;;;;5045106;28;20415;-77
2022/03/05 01:12:21;;;;;;;1999.90;999.90;;;3.10;99.90;;;;;;5010765;28;20202;-77
2022/03/05 01:14:48;;;;;;;1999.90;999.90;;;3.00;99.90;;;;;;5043407;28;20200;-77
2022/03/05 01:17:14;;;;;;;1999.90;999.90;;;3.00;99.90;;;;;;5044321;28;20661;-77
2022/03/05 01:19:40;;;;;;;1999.90;999.90;;;3.00;99.90;;;;;;5043116;28;20191;-77
2022/03/05 01:22:07;;;;;;;1999.90;999.90;;;2.90;99.90;;;;;;5009904;28;20423;-77
2022/03/05 01:24:34;;;;;;;1999.90;999.90;;;2.90;99.90;;;;;;5043856;28;20426;-77
2022/03/05 01:27:02;;;;;;;1999.90;999.90;;;3.10;99.90;;;;;;5026514;28;20196;-77
2022/03/05 01:29:27;;;;;;;1999.90;999.90;;;2.80;99.90;;;;;;5003023;28;20196;-77
2022/03/05 01:31:53;;;;;;;1999.90;999.90;;;2.80;99.90;;;;;;5033535;28;20548;-76
2022/03/05 01:34:19;;;;;;;1999.90;999.90;;;2.70;99.90;;;;;;5033343;28;20192;-77
2022/03/05 01:36:45;;;;;;;1999.90;999.90;;;2.70;99.90;;;;;;5034539;28;20160;-77
2022/03/05 01:39:11;;;;;;;1999.90;999.90;;;2.60;99.90;;;;;;5035763;28;20169;-77
2022/03/05 01:41:37;;;;;;;1999.90;999.90;;;2.70;99.90;;;;;;5036212;28;20161;-77
2022/03/05 01:44:04;;;;;;;1999.90;999.90;;;2.60;99.90;;;;;;5032984;28;20616;-78
2022/03/05 01:46:35;;;;;;;1999.90;999.90;;;2.50;99.90;;;;;;5033086;28;20623;-78
2022/03/05 01:49:03;;;;;;;1999.90;999.90;;;2.50;99.90;;;;;;5032959;28;20200;-78
2022/03/05 01:51:29;;;;;;;1999.90;999.90;;;2.50;99.90;;;;;;5033027;28;20172;-77
2022/03/05 01:53:54;;;;;;;1999.90;999.90;;;2.50;99.90;;;;;;5015169;28;20207;-77
2022/03/05 01:56:22;;;;;;;1999.90;999.90;;;2.40;99.90;;;;;;5031394;28;20776;-77
2022/03/05 01:58:48;;;;;;;1999.90;999.90;;;2.40;99.90;;;;;;5032689;28;20191;-77
2022/03/05 02:01:14;;;;;;;1999.90;999.90;;;2.40;99.90;;;;;;5032779;28;20549;-78
2022/03/05 02:03:40;;;;;;;1999.90;999.90;;;2.40;99.90;;;;;;5032765;28;20168;-78
2022/03/05 02:06:06;;;;;;;1999.90;999.90;;;2.30;99.90;;;;;;5032319;28;20650;-77
2022/03/05 02:08:32;;;;;;;1999.90;999.90;;;2.30;99.90;;;;;;5032504;28;20196;-78
2022/03/05 02:10:58;;;;;;;1999.90;999.90;;;2.20;99.90;;;;;;5032636;28;20429;-77
2022/03/05 02:13:26;;;;;;;1999.90;999.90;;;2.20;99.90;;;;;;5032567;28;20265;-78
2022/03/05 02:15:58;;;;;;;1999.90;999.90;;;2.10;99.90;;;;;;5032382;28;20171;-78
2022/03/05 02:18:24;;;;;;;1999.90;999.90;;;2.10;99.90;;;;;;5032314;28;20184;-78
2022/03/05 02:20:51;;;;;;;1999.90;999.90;;;2.10;99.90;;;;;;5032712;28;20192;-77
2022/03/05 02:23:17;;;;;;;1999.90;999.90;;;2.10;99.90;;;;;;5033205;28;20176;-78
2022/03/05 02:26:00;;;;;;;1999.90;999.90;;;2.10;99.90;;;;;;5032479;28;20700;-78
2022/03/05 02:28:27;;;;;;;1999.90;999.90;;;2.10;99.90;;;;;;5033152;28;20204;-78
2022/03/05 02:30:53;;;;;;;1999.90;999.90;;;2.10;99.90;;;;;;5033531;28;20160;-78
2022/03/05 02:33:19;;;;;;;1999.90;999.90;;;2.10;99.90;;;;;;5033537;28;20254;-78
2022/03/05 02:35:46;;;;;;;1999.90;999.90;;;2.10;99.90;;;;;;5033158;28;20204;-77
2022/03/05 02:38:16;;;;;;;1999.90;999.90;;;2.10;99.90;;;;;;5033794;28;20707;-78
2022/03/05 02:40:43;;;;;;;1999.90;999.90;;;2.00;99.90;;;;;;5033652;28;20244;-78
2022/03/05 02:43:09;;;;;;;1999.90;999.90;;;2.00;99.90;;;;;;5033428;28;20232;-78
2022/03/05 02:45:36;;;;;;;1999.90;999.90;;;2.00;99.90;;;;;;5033099;28;20180;-78
2022/03/05 02:48:04;;;;;;;1999.90;999.90;;;2.00;99.90;;;;;;5102558;22;20243;-77
2022/03/05 02:50:30;;;;;;;1999.90;999.90;;;1.90;99.90;;;;;;5115529;28;20158;-78
2022/03/05 02:52:56;;;;;;;1999.90;999.90;;;1.90;99.90;;;;;;5116377;28;20172;-78
2022/03/05 02:55:22;;;;;;;1999.90;999.90;;;1.90;99.90;;;;;;5115723;28;20215;-78
2022/03/05 02:57:47;;;;;;;1999.90;999.90;;;1.80;99.90;;;;;;5116406;28;20415;-78
2022/03/05 03:00:15;;;;;;;1999.90;999.90;;;1.80;99.90;;;;;;5112462;28;20166;-76
2022/03/05 03:02:41;;;;;;;1999.90;999.90;;;1.80;99.90;;;;;;5112305;28;20162;-76
2022/03/05 03:05:07;;;;;;;1999.90;999.90;;;1.70;99.90;;;;;;5112126;28;20177;-76
2022/03/05 03:07:32;;;;;;;1999.90;999.90;;;1.70;99.90;;;;;;5110922;28;20435;-76
2022/03/05 03:09:58;;;;;;;1999.90;999.90;;;1.60;99.90;;;;;;5112220;28;20403;-76
2022/03/05 03:12:26;;;;;;;1999.90;999.90;;;1.60;99.90;;;;;;5112304;28;20219;-76
2022/03/05 03:14:51;;;;;;;1999.90;999.90;;;1.50;99.90;;;;;;5113182;28;20197;-77
2022/03/05 03:17:17;;;;;;;1999.90;999.90;;;1.50;99.90;;;;;;5114019;28;20165;-78
2022/03/05 03:19:43;;;;;;;1999.90;999.90;;;1.50;99.90;;;;;;5116028;28;20230;-79
2022/03/05 03:22:09;;;;;;;1999.90;999.90;;;1.50;99.90;;;;;;5119070;28;20170;-79
2022/03/05 03:24:35;;;;;;;1999.90;999.90;;;1.40;99.90;;;;;;5119045;28;20170;-76
2022/03/05 03:27:00;;;;;;;1999.90;999.90;;;1.40;99.90;;;;;;5116091;28;20904;-76
2022/03/05 03:29:26;;;;;;;1999.90;999.90;;;1.40;99.90;;;;;;5115907;28;20204;-76
2022/03/05 03:31:51;;;;;;;1999.90;999.90;;;1.40;99.90;;;;;;5116009;28;20169;-77
2022/03/05 03:34:17;;;;;;;1999.90;999.90;;;1.40;99.90;;;;;;5115718;28;20247;-76
2022/03/05 03:36:43;;;;;;;1999.90;999.90;;;1.40;99.90;;;;;;5115893;28;20211;-76
2022/03/05 03:39:08;;;;;;;1999.90;999.90;;;1.30;99.90;;;;;;5116951;28;20243;-78
2022/03/05 03:41:34;;;;;;;1999.90;999.90;;;1.30;99.90;;;;;;5119836;28;20227;-78
2022/03/05 03:43:59;;;;;;;1999.90;999.90;;;1.30;99.90;;;;;;5117595;28;20176;-77
2022/03/05 03:46:25;;;;;;;1999.90;999.90;;;1.30;99.90;;;;;;5115724;28;20544;-76
2022/03/05 03:48:50;;;;;;;1999.90;999.90;;;1.30;99.90;;;;;;5115472;28;20197;-76
2022/03/05 03:51:16;;;;;;;1999.90;999.90;;;1.30;99.90;;;;;;5115662;28;20166;-77
2022/03/05 03:53:42;;;;;;;1999.90;999.90;;;1.30;99.90;;;;;;5115462;28;20670;-76
2022/03/05 03:56:07;;;;;;;1999.90;999.90;;;1.30;99.90;;;;;;5115228;28;20265;-76
2022/03/05 03:58:33;;;;;;;1999.90;999.90;;;1.30;99.90;;;;;;5115325;28;20182;-76
2022/03/05 04:00:58;;;;;;;1999.90;999.90;;;1.20;99.90;;;;;;5115492;28;20200;-76
2022/03/05 04:03:24;;;;;;;1999.90;999.90;;;1.10;99.90;;;;;;5115344;28;20176;-77
2022/03/05 04:05:50;;;;;;;1999.90;999.90;;;1.10;99.90;;;;;;5113786;28;20181;-76
2022/03/05 04:10:59;;;;;;;1999.90;999.90;;;1.10;99.90;;;;;;5115292;28;20280;-76
2022/03/05 04:13:25;;;;;;;1999.90;999.90;;;1.10;99.90;;;;;;5116575;28;20288;-79
2022/03/05 04:15:50;;;;;;;1999.90;999.90;;;1.10;99.90;;;;;;5118560;28;20165;-76
2022/03/05 04:18:16;;;;;;;1999.90;999.90;;;1.10;99.90;;;;;;5115128;28;20884;-76
2022/03/05 04:20:42;;;;;;;1999.90;999.90;;;1.10;99.90;;;;;;5115098;28;20161;-76
2022/03/05 04:23:07;;;;;;;1999.90;999.90;;;1.10;99.90;;;;;;5114948;28;20306;-77
2022/03/05 04:25:33;;;;;;;1999.90;999.90;;;1.10;99.90;;;;;;5114721;28;20403;-77
2022/03/05 04:27:59;;;;;;;1999.90;999.90;;;1.10;99.90;;;;;;5114827;28;20189;-77
2022/03/05 04:30:24;;;;;;;1999.90;999.90;;;1.10;99.90;;;;;;5114467;28;20204;-76
2022/03/05 04:32:50;;;;;;;1999.90;999.90;;;1.00;99.90;;;;;;5112497;28;20197;-76
2022/03/05 04:35:16;;;;;;;1999.90;999.90;;;1.00;99.90;;;;;;5114515;28;20158;-76
2022/03/05 04:37:42;;;;;;;1999.90;999.90;;;1.00;99.90;;;;;;5114624;28;20183;-76
2022/03/05 04:40:08;;;;;;;1999.90;999.90;;;1.00;99.90;;;;;;5114750;28;20188;-77
2022/03/05 04:42:34;;;;;;;1999.90;999.90;;;0.90;99.90;;;;;;5114866;28;20169;-77
2022/03/05 04:45:00;;;;;;;1999.90;999.90;;;0.90;99.90;;;;;;5114449;28;20170;-77
2022/03/05 04:47:26;;;;;;;1999.90;999.90;;;0.90;99.90;;;;;;5114387;28;20594;-76
2022/03/05 04:49:51;;;;;;;1999.90;999.90;;;0.80;99.90;;;;;;5114536;28;20160;-77
2022/03/05 04:52:17;;;;;;;1999.90;999.90;;;0.90;99.90;;;;;;5114495;28;20174;-77
2022/03/05 04:54:42;;;;;;;1999.90;999.90;;;0.80;99.90;;;;;;5114084;28;20190;-76
2022/03/05 04:57:08;;;;;;;1999.90;999.90;;;0.70;99.90;;;;;;5114356;28;20166;-76
2022/03/05 04:59:34;;;;;;;1999.90;999.90;;;0.70;99.90;;;;;;5114538;28;20165;-77
2022/03/05 05:02:00;;;;;;;1999.90;999.90;;;0.80;99.90;;;;;;5114474;28;20166;-77
2022/03/05 05:04:26;;;;;;;1999.90;999.90;;;0.80;99.90;;;;;;5118458;28;20166;-78
2022/03/05 05:06:52;;;;;;;1999.90;999.90;;;0.90;99.90;;;;;;5117823;27;20248;-78
2022/03/05 05:09:18;;;;;;;1999.90;999.90;;;0.80;99.90;;;;;;5117272;28;20228;-76
2022/03/05 05:11:43;;;;;;;1999.90;999.90;;;0.90;99.90;;;;;;5117630;28;20649;-78
2022/03/05 05:14:10;;;;;;;1999.90;999.90;;;0.80;99.90;;;;;;5117220;28;20230;-78
2022/03/05 05:16:36;;;;;;;1999.90;999.90;;;0.80;99.90;;;;;;5116337;28;20642;-78
2022/03/05 05:21:46;;;;;;;1999.90;999.90;;;0.80;99.90;;;;;;5113840;28;20453;-77
2022/03/05 05:24:12;;;;;;;1999.90;999.90;;;0.80;99.90;;;;;;5113590;28;20177;-77
2022/03/05 05:26:38;;;;;;;1999.90;999.90;;;0.70;99.90;;;;;;5113809;28;20660;-76
2022/03/05 05:29:03;;;;;;;1999.90;999.90;;;0.70;99.90;;;;;;5113652;28;20177;-76
2022/03/05 05:31:29;;;;;;;1999.90;999.90;;;0.70;99.90;;;;;;5113316;28;20173;-78
2022/03/05 05:33:55;;;;;;;1999.90;999.90;;;0.60;99.90;;;;;;5117266;27;20194;-75
2022/03/05 05:36:21;;;;;;;1999.90;999.90;;;0.70;99.90;;;;;;5116372;28;20162;-79
2022/03/05 05:38:46;;;;;;;1999.90;999.90;;;0.70;99.90;;;;;;5117270;28;20193;-79
2022/03/05 05:41:12;;;;;;;1999.90;999.90;;;0.60;99.90;;;;;;5116809;28;20168;-78
2022/03/05 05:43:38;;;;;;;1999.90;999.90;;;0.60;99.90;;;;;;5114574;28;20545;-78
2022/03/05 05:46:03;;;;;;;1999.90;999.90;;;0.60;99.90;;;;;;5116687;27;20418;-78
2022/03/05 05:48:29;;;;;;;1999.90;999.90;;;0.70;99.90;;;;;;5116508;28;20209;-78
2022/03/05 05:50:55;;;;;;;1999.90;999.90;;;0.60;99.90;;;;;;5116860;28;20170;-78
2022/03/05 05:53:21;;;;;;;1999.90;999.90;;;0.60;99.90;;;;;;5114185;28;20208;-77
2022/03/05 05:55:47;;;;;;;1999.90;999.90;;;0.60;99.90;;;;;;5115750;28;20177;-78
2022/03/05 05:58:12;;;;;;;1999.90;999.90;;;0.70;99.90;;;;;;5117080;28;20189;-78
2022/03/05 06:00:38;;;;;;;1999.90;999.90;;;0.70;99.90;;;;;;5116758;28;20166;-78
2022/03/05 06:03:03;;;;;;;1999.90;999.90;;;0.70;99.90;;;;;;5116760;28;20623;-79
2022/03/05 06:05:29;;;;;;;1999.90;999.90;;;0.60;99.90;;;;;;5116093;28;20360;-78
2022/03/05 06:07:56;;;;;;;1999.90;999.90;;;0.60;99.90;;;;;;5116057;28;20178;-78
2022/03/05 06:10:21;;;;;;;1999.90;999.90;;;0.60;99.90;;;;;;5116179;28;20158;-78
2022/03/05 06:12:48;;;;;;;1999.90;999.90;;;0.60;99.90;;;;;;5116113;28;20207;-78
2022/03/05 06:15:14;;;;;;;1999.90;999.90;;;0.50;99.90;;;;;;5116217;28;20240;-78
2022/03/05 06:17:43;;;;;;;1999.90;999.90;;;0.40;99.90;;;;;;5113754;28;20186;-76
2022/03/05 06:20:10;;;;;;;1999.90;999.90;;;0.50;99.90;;;;;;5114233;28;20173;-78
2022/03/05 06:22:36;;;;;;;1999.90;999.90;;;0.40;99.90;;;;;;5116155;28;20530;-78
2022/03/05 06:25:03;;;;;;;1999.90;999.90;;;0.50;99.90;;;;;;5114403;28;20198;-79
2022/03/05 06:27:29;;;;;;;1999.90;999.90;;;0.50;99.90;;;;;;5120413;28;20201;-78
2022/03/05 06:29:54;;;;;;;1999.90;999.90;;;0.50;99.90;;;;;;5124689;28;20173;-78
2022/03/05 06:32:20;;;;;;;1999.90;999.90;;;0.50;99.90;;;;;;5122207;28;20169;-78
2022/03/05 06:34:46;;;;;;;1999.90;999.90;;;0.50;99.90;;;;;;5116346;28;20634;-77
2022/03/05 06:37:11;;;;;;;1999.90;999.90;;;0.50;99.90;;;;;;5114810;28;20173;-76
2022/03/05 06:39:37;;;;;;;1999.90;999.90;;;0.50;99.90;;;;;;5112539;28;20168;-76
2022/03/05 06:42:03;;;;;;;1999.90;999.90;;;0.50;99.90;;;;;;5112507;28;20165;-76
2022/03/05 06:44:28;;;;;;;1999.90;999.90;;;0.60;99.90;;;;;;5112242;28;20165;-76
2022/03/05 06:46:54;;;;;;;1999.90;999.90;;;0.60;99.90;;;;;;5114691;28;20441;-78
2022/03/05 06:49:19;;;;;;;1999.90;999.90;;;0.60;99.90;;;;;;5112449;28;20216;-78
2022/03/05 06:51:45;;;;;;;1999.90;999.90;;;0.70;99.90;;;;;;5115489;28;20169;-78
2022/03/05 06:54:11;;;;;;;1999.90;999.90;;;0.80;99.90;;;;;;5113205;28;20228;-76
2022/03/05 06:56:37;;;;;;;1999.90;999.90;;;0.80;99.90;;;;;;5116662;28;20164;-77
2022/03/05 06:59:03;;;;;;;1999.90;999.90;;;0.80;99.90;;;;;;5116575;28;20657;-77
2022/03/05 07:01:28;;;;;;;1999.90;999.90;;;0.80;99.90;;;;;;5116604;28;20249;-77
2022/03/05 07:03:54;;;;;;;1999.90;999.90;;;0.90;99.90;;;;;;5116507;28;20810;-76
2022/03/05 07:06:19;;;;;;;1999.90;999.90;;;0.90;99.90;;;;;;5116289;28;20638;-76
2022/03/05 07:08:45;;;;;;;1999.90;999.90;;;0.90;99.90;;;;;;5116411;28;20189;-76
2022/03/05 07:11:11;;;;;;;1999.90;999.90;;;1.00;99.90;;;;;;5116383;28;20683;-77
2022/03/05 07:13:36;;;;;;;1999.90;999.90;;;1.10;99.90;;;;;;5116276;28;20703;-76
2022/03/05 07:16:02;;;;;;;1999.90;999.90;;;1.10;99.90;;;;;;5115972;28;20269;-77
2022/03/05 07:18:28;;;;;;;1999.90;999.90;;;1.20;99.90;;;;;;5116146;28;20557;-76
2022/03/05 07:20:53;;;;;;;1999.90;999.90;;;1.30;99.90;;;;;;5116141;28;20245;-76
2022/03/05 07:23:19;;;;;;;1999.90;999.90;;;1.30;99.90;;;;;;5116171;28;20230;-77
2022/03/05 07:25:44;;;;;;;1999.90;999.90;;;1.40;99.90;;;;;;5115885;28;20198;-76
2022/03/05 07:28:12;;;;;;;1999.90;999.90;;;1.50;99.90;;;;;;5116032;28;20192;-76
2022/03/05 07:30:38;;;;;;;1999.90;999.90;;;1.60;99.90;;;;;;5116015;28;20173;-76
2022/03/05 07:33:05;;;;;;;1999.90;999.90;;;1.70;99.90;;;;;;5115801;28;20210;-76
2022/03/05 07:35:30;;;;;;;1999.90;999.90;;;1.80;99.90;;;;;;5115638;28;20162;-76
2022/03/05 07:37:56;;;;;;;1999.90;999.90;;;1.80;99.90;;;;;;5115819;28;20192;-76
2022/03/05 07:40:22;;;;;;;1999.90;999.90;;;1.90;99.90;;;;;;5115868;28;20244;-76
2022/03/05 07:42:47;;;;;;;1999.90;999.90;;;2.00;99.90;;;;;;5115821;28;20212;-77
2022/03/05 07:45:13;;;;;;;1999.90;999.90;;;2.00;99.90;;;;;;5115483;28;20170;-76
2022/03/05 07:47:39;;;;;;;1999.90;999.90;;;2.10;99.90;;;;;;5115368;28;20451;-76
2022/03/05 07:50:05;;;;;;;1999.90;999.90;;;2.20;99.90;;;;;;5115711;28;20566;-76
2022/03/05 07:52:31;;;;;;;1999.90;999.90;;;2.20;99.90;;;;;;5115601;28;20258;-76
2022/03/05 07:54:56;;;;;;;1999.90;999.90;;;2.30;99.90;;;;;;5117106;28;20240;-78
2022/03/05 07:57:22;;;;;;;1999.90;999.90;;;2.40;99.90;;;;;;5119273;28;20158;-78
2022/03/05 07:59:48;;;;;;;1999.90;999.90;;;2.40;99.90;;;;;;5119571;28;20158;-78
2022/03/05 08:02:15;;;;;;;1999.90;999.90;;;2.50;99.90;;;;;;5119594;28;20419;-78
2022/03/05 08:04:43;;;;;;;1999.90;999.90;;;2.60;99.90;;;;;;5119127;28;20172;-78
2022/03/05 08:07:08;;;;;;;1999.90;999.90;;;2.60;99.90;;;;;;5117705;28;20173;-78
2022/03/05 08:09:37;;;;;;;1999.90;999.90;;;2.70;99.90;;;;;;5119829;28;20170;-77
2022/03/05 08:12:03;;;;;;;1999.90;999.90;;;2.80;99.90;;;;;;5119204;28;20169;-78
2022/03/05 08:14:30;;;;;;;1999.90;999.90;;;2.90;99.90;;;;;;5117354;28;20201;-78
2022/03/05 08:16:56;;;;;;;1999.90;999.90;;;3.00;99.90;;;;;;5117573;28;20177;-77
2022/03/05 08:19:21;;;;;;;1999.90;999.90;;;3.10;99.90;;;;;;5116936;28;20189;-77
2022/03/05 08:21:47;;;;;;;1999.90;999.90;;;3.10;99.90;;;;;;5116941;28;20162;-77
2022/03/05 08:24:12;;;;;;;1999.90;999.90;;;3.20;99.90;;;;;;5116453;28;20174;-77
2022/03/05 08:26:38;;;;;;;1999.90;999.90;;;3.40;99.90;;;;;;5116734;28;20634;-78
2022/03/05 08:29:05;;;;;;;1999.90;999.90;;;3.40;99.90;;;;;;5116744;28;20181;-78
2022/03/05 08:31:31;;;;;;;1999.90;999.90;;;3.50;99.90;;;;;;5117157;28;20400;-76
2022/03/05 08:33:58;;;;;;;1999.90;999.90;;;3.60;99.90;;;;;;5116959;28;20197;-76
2022/03/05 08:36:24;;;;;;;1999.90;999.90;;;3.70;99.90;;;;;;5116598;28;20248;-77
2022/03/05 08:38:50;;;;;;;1999.90;999.90;;;3.70;99.90;;;;;;5116745;28;20625;-77
2022/03/05 08:41:16;;;;;;;1999.90;999.90;;;3.80;99.90;;;;;;5117052;28;20185;-78
2022/03/05 08:43:42;;;;;;;1999.90;999.90;;;4.00;99.90;;;;;;5114393;28;20829;-76
2022/03/05 08:46:09;;;;;;;1999.90;999.90;;;4.00;99.90;;;;;;5112917;28;20266;-76
2022/03/05 08:48:34;;;;;;;1999.90;999.90;;;4.10;99.90;;;;;;5116156;28;20256;-78
2022/03/05 08:51:00;;;;;;;1999.90;999.90;;;4.10;99.90;;;;;;5116565;28;20169;-77
2022/03/05 08:53:26;;;;;;;1999.90;999.90;;;4.30;99.90;;;;;;5116239;28;20186;-77
2022/03/05 08:55:52;;;;;;;1999.90;999.90;;;4.30;99.90;;;;;;5115815;28;20218;-77
2022/03/05 08:58:19;;;;;;;1999.90;999.90;;;4.40;99.90;;;;;;5116278;28;20425;-78
2022/03/05 09:00:45;;;;;;;1999.90;999.90;;;4.60;99.90;;;;;;5116205;28;20396;-78
2022/03/05 09:03:10;;;;;;;1999.90;999.90;;;4.60;99.90;;;;;;5118186;28;20399;-78
2022/03/05 09:05:36;;;;;;;1999.90;999.90;;;4.60;99.90;;;;;;5117087;28;20165;-78
2022/03/05 09:08:02;;;;;;;1999.90;999.90;;;4.80;99.90;;;;;;5118155;28;20178;-78
2022/03/05 09:10:29;;;;;;;1999.90;999.90;;;4.80;99.90;;;;;;5118031;28;20190;-79
2022/03/05 09:12:55;;;;;;;1999.90;999.90;;;5.00;99.90;;;;;;5118063;28;20810;-78
2022/03/05 09:15:21;;;;;;;1999.90;999.90;;;5.10;99.90;;;;;;5117612;28;20400;-78
2022/03/05 09:17:46;;;;;;;1999.90;999.90;;;5.20;99.90;;;;;;5117388;28;20182;-79
2022/03/05 09:20:12;;;;;;;1999.90;999.90;;;5.30;99.90;;;;;;5117549;28;20442;-78
2022/03/05 09:22:38;;;;;;;1999.90;999.90;;;5.40;99.90;;;;;;5118297;28;20166;-77
2022/03/05 09:25:04;;;;;;;1999.90;999.90;;;5.60;99.90;;;;;;5117111;28;20207;-77
2022/03/05 09:27:30;;;;;;;1999.90;999.90;;;5.70;99.90;;;;;;5114959;28;20424;-76
2022/03/05 09:29:58;;;;;;;1999.90;999.90;;;5.80;99.90;;;;;;5113648;28;20411;-76
2022/03/05 09:32:23;;;;;;;1999.90;999.90;;;5.90;99.90;;;;;;5113633;28;20235;-76
2022/03/05 09:34:49;;;;;;;1999.90;999.90;;;6.00;99.90;;;;;;5113330;28;20929;-76
2022/03/05 09:37:15;;;;;;;1999.90;999.90;;;6.10;99.90;;;;;;5113419;28;20528;-76
2022/03/05 09:39:41;;;;;;;1999.90;999.90;;;6.20;99.90;;;;;;5113537;28;20531;-77
2022/03/05 09:42:07;;;;;;;1999.90;999.90;;;6.30;99.90;;;;;;5110240;28;20508;-77
2022/03/05 09:44:34;;;;;;;1999.90;999.90;;;6.40;99.90;;;;;;5111748;28;20388;-77
2022/03/05 09:47:02;;;;;;;1999.90;999.90;;;6.50;99.90;;;;;;5112396;27;20841;-77
2022/03/05 09:49:29;;;;;;;1999.90;999.90;;;6.60;99.90;;;;;;5109057;28;20770;-76
2022/03/05 09:51:57;;;;;;;1999.90;999.90;;;6.60;99.90;;;;;;5112035;28;20412;-77
2022/03/05 09:54:23;;;;;;;1999.90;999.90;;;6.70;99.90;;;;;;5110822;28;20447;-77
2022/03/05 09:56:50;;;;;;;1999.90;999.90;;;6.70;99.90;;;;;;5112289;28;20818;-77
2022/03/05 09:59:21;;;;;;;1999.90;999.90;;;6.80;99.90;;;;;;5112599;28;20184;-77
2022/03/05 10:01:47;;;;;;;1999.90;999.90;;;6.90;99.90;;;;;;5094495;28;20412;-78
2022/03/05 10:04:24;;;;;;;1999.90;999.90;;;7.00;99.90;;;;;;5112189;28;20399;-78
2022/03/05 10:07:12;;;;;;;1999.90;999.90;;;7.20;99.90;;;;;;5111372;28;20415;-77
2022/03/05 10:09:40;;;;;;;1999.90;999.90;;;7.20;99.90;;;;;;5112904;28;20415;-77
2022/03/05 10:12:33;;;;;;;1999.90;999.90;;;7.40;99.90;;;;;;5112406;28;20414;-78
2022/03/05 10:15:08;;;;;;;1999.90;999.90;;;7.50;99.90;;;;;;5115565;27;20489;-77
2022/03/05 10:17:52;;;;;;;1999.90;999.90;;;7.60;99.90;;;;;;5110966;28;20435;-78
2022/03/05 10:20:23;;;;;;;1999.90;999.90;;;7.70;99.90;;;;;;5127577;27;20502;-77
2022/03/05 10:23:04;;;;;;;1999.90;999.90;;;7.90;99.90;;;;;;5128588;27;20477;-77
2022/03/05 10:25:31;;;;;;;1999.90;999.90;;;8.10;99.90;;;;;;5110897;28;20435;-78
2022/03/05 10:28:03;;;;;;;1999.90;999.90;;;8.20;99.90;;;;;;5111705;28;20793;-77
2022/03/05 10:30:44;;;;;;;1999.90;999.90;;;8.40;99.90;;;;;;5111771;28;20445;-77
2022/03/05 10:33:23;;;;;;;1999.90;999.90;;;8.50;99.90;;;;;;5110110;28;20411;-77
2022/03/05 10:35:49;;;;;;;1999.90;999.90;;;8.70;99.90;;;;;;5111210;28;20403;-77
2022/03/05 10:38:14;;;;;;;1999.90;999.90;;;8.80;99.90;;;;;;5111731;28;20511;-74
2022/03/05 10:40:40;;;;;;;1999.90;999.90;;;8.90;99.90;;;;;;5111537;28;20190;-76
2022/03/05 10:43:07;;;;;;;1999.90;999.90;;;9.00;99.90;;;;;;5111229;28;20562;-76
2022/03/05 10:45:52;;;;;;;1999.90;999.90;;;9.10;99.90;;;;;;5111748;28;20185;-74
2022/03/05 10:48:27;;;;;;;1999.90;999.90;;;9.20;99.90;;;;;;5111915;28;20429;-74
2022/03/05 10:51:11;;;;;;;1999.90;999.90;;;9.30;99.90;;;;;;5111532;28;20485;-74
2022/03/05 10:53:38;;;;;;;1999.90;999.90;;;9.40;99.90;;;;;;5111401;28;20584;-74
2022/03/05 10:56:32;;;;;;;1999.90;999.90;;;9.50;99.90;;;;;;5110757;28;20464;-75
2022/03/05 10:59:07;;;;;;;1999.90;999.90;;;9.60;99.90;;;;;;5103849;28;20428;-74
2022/03/05 11:01:34;;;;;;;1999.90;999.90;;;9.80;99.90;;;;;;5110165;28;20405;-75
2022/03/05 11:04:00;;;;;;;1999.90;999.90;;;9.80;99.90;;;;;;5110888;28;20432;-74
2022/03/05 11:06:27;;;;;;;1999.90;999.90;;;10.00;99.90;;;;;;5111677;28;20459;-74
2022/03/05 11:08:53;;;;;;;1999.90;999.90;;;10.10;99.90;;;;;;5111765;28;20522;-74
2022/03/05 11:11:20;;;;;;;1999.90;999.90;;;10.20;99.90;;;;;;5111049;28;20483;-74
2022/03/05 11:13:46;;;;;;;1999.90;999.90;;;10.30;99.90;;;;;;5111277;28;20541;-74
2022/03/05 11:16:12;;;;;;;1999.90;999.90;;;10.40;99.90;;;;;;5111271;28;20944;-74
2022/03/05 11:18:42;;;;;;;1999.90;999.90;;;10.30;99.90;;;;;;5111095;28;20446;-74
2022/03/05 11:21:08;;;;;;;1999.90;999.90;;;10.40;99.90;;;;;;5111339;28;20418;-74
2022/03/05 11:23:35;;;;;;;1999.90;999.90;;;10.50;99.90;;;;;;5127374;28;20491;-74
2022/03/05 11:26:01;;;;;;;1999.90;999.90;;;10.60;99.90;;;;;;5110970;28;20414;-74
2022/03/05 11:28:35;;;;;;;1999.90;999.90;;;10.70;99.90;;;;;;5111499;28;20840;-75
2022/03/05 11:31:16;;;;;;;1999.90;999.90;;;10.90;99.90;;;;;;5111453;28;20402;-76
2022/03/05 11:33:44;;;;;;;1999.90;999.90;;;11.20;99.90;;;;;;5110159;28;20485;-74
2022/03/05 11:36:31;;;;;;;1999.90;999.90;;;11.30;99.90;;;;;;5110804;28;20487;-74
2022/03/05 11:39:06;;;;;;;1999.90;999.90;;;11.50;99.90;;;;;;5111313;28;20505;-74
2022/03/05 11:41:31;;;;;;;1999.90;999.90;;;11.50;99.90;;;;;;5113034;28;20926;-75
2022/03/05 11:44:13;;;;;;;1999.90;999.90;;;11.60;99.90;;;;;;5114910;28;20411;-74
2022/03/05 11:46:39;;;;;;;1999.90;999.90;;;11.80;99.90;;;;;;5115440;28;20215;-74
2022/03/05 11:49:07;;;;;;;1999.90;999.90;;;12.30;99.90;;;;;;5113440;28;21039;-74
2022/03/05 11:51:34;;;;;;;1999.90;999.90;;;12.90;95.80;;;;;;5114982;28;20158;-74
2022/03/05 11:54:05;;;;;;;1999.90;999.90;;;13.50;92.70;;;;;;5114413;28;20458;-77
2022/03/05 11:56:31;;;;;;;1999.90;999.90;;;14.10;88.30;;;;;;5114529;28;20398;-74
2022/03/05 11:58:57;;;;;;;1999.90;999.90;;;15.00;73.10;;;;;;5114607;28;20424;-75
2022/03/05 12:01:41;;;;;;;1999.90;999.90;;;15.30;63.90;;;;;;5114106;28;20198;-74
2022/03/05 12:04:22;;;;;;;1999.90;999.90;;;15.90;57.50;;;;;;5113737;28;20432;-74
2022/03/05 12:06:52;;;;;;;1999.90;999.90;;;16.50;52.60;;;;;;5114909;28;20404;-77
2022/03/05 12:09:33;;;;;;;1999.90;999.90;;;16.90;45.60;;;;;;5115235;28;20860;-74
2022/03/05 12:12:02;;;;;;;1999.90;999.90;;;17.30;40.80;;;;;;5114036;28;20768;-76
2022/03/05 12:14:55;;;;;;;1999.90;999.90;;;17.70;38.90;;;;;;5113560;28;20470;-76